Map

Track Data

SID SEASON NUMBER BASIN SUBBASIN NAME ISO_TIME NATURE LAT LON WMO_WIND WMO_PRES WMO_AGENCY TRACK_TYPE DIST2LAND LANDFALL IFLAG USA_AGENCY USA_ATCF_ID USA_LAT USA_LON USA_RECORD USA_STATUS USA_WIND USA_PRES USA_SSHS USA_R34_NE USA_R34_SE USA_R34_SW USA_R34_NW USA_R50_NE USA_R50_SE USA_R50_SW USA_R50_NW USA_R64_NE USA_R64_SE USA_R64_SW USA_R64_NW USA_POCI USA_ROCI USA_RMW USA_EYE TOKYO_LAT TOKYO_LON TOKYO_GRADE TOKYO_WIND TOKYO_PRES TOKYO_R50_DIR TOKYO_R50_LONG TOKYO_R50_SHORT TOKYO_R30_DIR TOKYO_R30_LONG TOKYO_R30_SHORT TOKYO_LAND CMA_LAT CMA_LON CMA_CAT CMA_WIND CMA_PRES HKO_LAT HKO_LON HKO_CAT HKO_WIND HKO_PRES NEWDELHI_LAT NEWDELHI_LON NEWDELHI_GRADE NEWDELHI_WIND NEWDELHI_PRES NEWDELHI_CI NEWDELHI_DP NEWDELHI_POCI REUNION_LAT REUNION_LON REUNION_TYPE REUNION_WIND REUNION_PRES REUNION_TNUM REUNION_CI REUNION_RMW REUNION_R34_NE REUNION_R34_SE REUNION_R34_SW REUNION_R34_NW REUNION_R50_NE REUNION_R50_SE REUNION_R50_SW REUNION_R50_NW REUNION_R64_NE REUNION_R64_SE REUNION_R64_SW REUNION_R64_NW BOM_LAT BOM_LON BOM_TYPE BOM_WIND BOM_PRES BOM_TNUM BOM_CI BOM_RMW BOM_R34_NE BOM_R34_SE BOM_R34_SW BOM_R34_NW BOM_R50_NE BOM_R50_SE BOM_R50_SW BOM_R50_NW BOM_R64_NE BOM_R64_SE BOM_R64_SW BOM_R64_NW BOM_ROCI BOM_POCI BOM_EYE BOM_POS_METHOD BOM_PRES_METHOD NADI_LAT NADI_LON NADI_CAT NADI_WIND NADI_PRES WELLINGTON_LAT WELLINGTON_LON WELLINGTON_WIND WELLINGTON_PRES DS824_LAT DS824_LON DS824_STAGE DS824_WIND DS824_PRES TD9636_LAT TD9636_LON TD9636_STAGE TD9636_WIND TD9636_PRES TD9635_LAT TD9635_LON TD9635_WIND TD9635_PRES TD9635_ROCI NEUMANN_LAT NEUMANN_LON NEUMANN_CLASS NEUMANN_WIND NEUMANN_PRES MLC_LAT MLC_LON MLC_CLASS MLC_WIND MLC_PRES USA_GUST BOM_GUST BOM_GUST_PER REUNION_GUST REUNION_GUST_PER USA_SEAHGT USA_SEARAD_NE USA_SEARAD_SE USA_SEARAD_SW USA_SEARAD_NW STORM_SPEED STORM_DIR
2003227N26277 2003 58 NA GM ERIKA 2003-08-14 18:00:00 TS 26.4000 -83.3000 35 1011 hurdat_atl main 108 108 O_____________ hurdat_atl AL082003 26.4000 -83.3000 TS 35 1011 0 60 60 1017 100 40 21 278
2003227N26277 2003 58 NA GM ERIKA 2003-08-14 21:00:00 TS 26.5387 -84.4690 main 208 208 P_____________ AL082003 26.5387 -84.4690 TS 37 1009 0 50 50 1017 105 37 22 275
2003227N26277 2003 58 NA GM ERIKA 2003-08-15 00:00:00 TS 26.6000 -85.7000 40 1008 hurdat_atl main 312 312 O_____________ hurdat_atl AL082003 26.6000 -85.7000 TS 40 1008 0 40 40 1017 110 35 23 270
2003227N26277 2003 58 NA GM ERIKA 2003-08-15 03:00:00 TS 26.5375 -87.0156 main 347 303 P_____________ AL082003 26.5375 -87.0156 TS 40 1008 0 70 70 1017 117 47 23 265
2003227N26277 2003 58 NA GM ERIKA 2003-08-15 06:00:00 TS 26.4000 -88.3000 40 1008 hurdat_atl main 300 294 O_____________ hurdat_atl AL082003 26.4000 -88.3000 TS 40 1008 0 100 100 1017 125 60 22 262
2003227N26277 2003 58 NA GM ERIKA 2003-08-15 09:00:00 TS 26.2413 -89.4452 main 314 314 P_____________ AL082003 26.2413 -89.4452 TS 42 1007 0 100 100 1017 125 60 20 261
2003227N26277 2003 58 NA GM ERIKA 2003-08-15 12:00:00 TS 26.1000 -90.5000 45 1007 hurdat_atl main 335 334 O_____________ hurdat_atl AL082003 26.1000 -90.5000 TS 45 1007 0 100 100 1017 125 60 19 264
2003227N26277 2003 58 NA GM ERIKA 2003-08-15 15:00:00 TS 26.0341 -91.5220 main 351 351 P_____________ AL082003 26.0341 -91.5220 TS 47 1004 0 110 110 1017 125 42 18 267
2003227N26277 2003 58 NA GM ERIKA 2003-08-15 18:00:00 TS 26.0000 -92.5000 50 1001 hurdat_atl main 380 369 O_____________ hurdat_atl AL082003 26.0000 -92.5000 TS 50 1001 0 120 60 30 120 1017 125 25 17 268
2003227N26277 2003 58 NA GM ERIKA 2003-08-15 21:00:00 TS 25.9644 -93.4646 main 359 279 P_____________ AL082003 25.9644 -93.4646 TS 52 998 0 120 60 30 120 1016 137 25 17 267
2003227N26277 2003 58 NA GM ERIKA 2003-08-16 00:00:00 TS 25.9000 -94.4000 55 995 hurdat_atl main 269 181 O_____________ hurdat_atl AL082003 25.9000 -94.4000 TS 55 995 0 120 60 30 120 1016 150 25 17 263
2003227N26277 2003 58 NA GM ERIKA 2003-08-16 03:00:00 TS 25.7727 -95.3245 main 181 100 P_____________ AL082003 25.7727 -95.3245 TS 57 991 0 97 60 45 120 1015 150 25 16 260
2003227N26277 2003 58 NA GM ERIKA 2003-08-16 06:00:00 TS 25.6000 -96.2000 60 988 hurdat_atl main 100 30 O_____________ hurdat_atl AL082003 25.6000 -96.2000 TS 60 988 0 75 60 60 120 1015 150 25 16 257
2003227N26277 2003 58 NA GM ERIKA 2003-08-16 09:00:00 TS 25.4028 -97.0806 main 20 0 P_____________ AL082003 25.4028 -97.0806 TS 63 986 0 50 60 60 72 1015 150 25 15 255
2003227N26277 2003 58 NA GM ERIKA 2003-08-16 10:30:00 TS 25.3000 -97.4000 65 986 hurdat_atl main 0 0 V_____________ hurdat_atl AL082003 25.3000 -97.4000 L HU 65 986 1 37 60 60 48 1015 150 25 10 247
2003227N26277 2003 58 NA NA ERIKA 2003-08-16 12:00:00 TS 25.2000 -97.6000 65 988 hurdat_atl main 10 0 O_____________ hurdat_atl AL082003 25.2000 -97.6000 HU 65 988 1 25 60 60 25 1015 150 25 10 246
2003227N26277 2003 58 NA NA ERIKA 2003-08-16 15:00:00 TS 24.9814 -98.1816 main 0 0 P_____________ AL082003 24.9814 -98.1816 HU 50 995 0 25 42 42 25 1015 150 22 12 251
2003227N26277 2003 58 NA NA ERIKA 2003-08-16 18:00:00 TS 24.8000 -98.9000 35 1003 hurdat_atl main 0 0 O_____________ hurdat_atl AL082003 24.8000 -98.9000 TS 35 1003 0 25 25 25 25 1015 150 20 13 259
2003227N26277 2003 58 NA NA ERIKA 2003-08-16 21:00:00 TS 24.7191 -99.6101 main 0 0 P_____________ AL082003 24.7191 -99.6101 TS 30 1005 -1 1014 150 22 13 266
2003227N26277 2003 58 NA NA ERIKA 2003-08-17 00:00:00 TS 24.7000 -100.300 25 1008 hurdat_atl main 0 O_____________ hurdat_atl AL082003 24.7000 -100.300 TD 25 1008 -1 1014 150 25 13 268

About IBTrACS Database

This database is a web-friendly format of International Best Track Archive for Climate Stewardship (IBTrACS), a global best track data archive curated by NOAA dating back to 1842.

Updated: 2021-11-26